Moore, Montana
Current Conditions -  °F | °C
As of 4:54 PM on Tuesday 25 Nov 2014 (Local Time) from KLWT Reporting Station
Overcast Overcast  
Wind Chill: 20°   Ceiling: 8000
Heat Index: 30°   Visibility: 10mi
Dew Point: 25°   Wind: 14mph
Humidity: 82%   Direction: 290°WNW
Pressure: 30.07"   Gusts: NA
Location:  46.98°N, 109.7°W
Report Text: KLWT 252354Z AUTO 29012KT 10SM OVC080 M01/M04 A3007 RMK AO2 SLP207 60001 T10111039 10006 21011 51025
Loading
Personal Weather Stations






























Interactive Weather Map New forecast layout! Learn more

10-Day Weather Forecast

Advertisements
Track Severe Weather on mobile